Time;durP1;ratioP1;P1;durP2;ratioP2;P2;SDS_P1;SDS_P2;PMS_P1;PMS_P2;Temp;Humidity;BMP_temperature;BMP_pressure;BME280_temperature;BME280_humidity;BME280_pressure;Samples;Min_cycle;Max_cycle;Signal;HPM_P1;HPM_P2
2021/04/12 00:00:02;;;;;;;7.55;4.68;;;;;;;;;;4956087;28;20138;-84
2021/04/12 00:02:33;;;;;;;7.32;4.53;;;;;;;;;;4955547;28;20404;-83
2021/04/12 00:05:14;;;;;;;10.73;5.15;;;;;;;;;;4971089;28;20054;-84
2021/04/12 00:07:57;;;;;;;8.82;4.82;;;;;;;;;;4951947;28;20130;-84
2021/04/12 00:10:28;;;;;;;10.30;6.70;;;;;;;;;;4953101;28;20051;-84
2021/04/12 00:13:02;;;;;;;10.98;5.43;;;;;;;;;;4953902;28;20075;-84
2021/04/12 00:15:35;;;;;;;9.27;5.68;;;;;;;;;;4956071;28;20075;-84
2021/04/12 00:18:06;;;;;;;8.98;5.45;;;;;;;;;;4955354;28;20138;-84
2021/04/12 00:20:39;;;;;;;10.65;5.90;;;;;;;;;;4950765;29;20772;-84
2021/04/12 00:23:15;;;;;;;8.07;5.15;;;;;;;;;;4972902;28;20101;-84
2021/04/12 00:26:19;;;;;;;10.52;5.40;;;;;;;;;;4955307;28;20071;-84
2021/04/12 00:28:48;;;;;;;12.18;5.65;;;;;;;;;;4875572;29;20048;-84
2021/04/12 00:31:19;;;;;;;8.43;5.20;;;;;;;;;;4939814;29;20457;-84
2021/04/12 00:33:53;;;;;;;10.02;5.63;;;;;;;;;;4947965;28;20053;-85
2021/04/12 00:36:35;;;;;;;13.10;6.03;;;;;;;;;;4955813;28;20105;-85
2021/04/12 00:39:11;;;;;;;11.05;5.30;;;;;;;;;;4956138;28;20061;-84
2021/04/12 00:41:37;;;;;;;;;;;;;;;;;;4956271;28;20135;-84
2021/04/12 00:44:23;;;;;;;8.43;4.75;;;;;;;;;;4956043;28;19961;-84
2021/04/12 00:46:49;;;;;;;;;;;;;;;;;;4962016;28;20066;-84
2021/04/12 00:49:35;;;;;;;6.85;4.25;;;;;;;;;;4968537;28;19927;-85
2021/04/12 00:52:01;;;;;;;;;;;;;;;;;;4959447;28;20098;-84
2021/04/12 00:54:52;;;;;;;6.68;3.72;;;;;;;;;;4955774;28;19961;-85
2021/04/12 00:57:38;;;;;;;7.40;3.47;;;;;;;;;;4964027;28;20467;-85
2021/04/12 01:00:08;;;;;;;5.60;3.75;;;;;;;;;;4955347;28;20082;-85
2021/04/12 01:02:40;;;;;;;6.72;2.97;;;;;;;;;;4955576;28;20113;-85
2021/04/12 01:05:26;;;;;;;8.05;3.00;;;;;;;;;;4955577;28;20153;-84
2021/04/12 01:07:52;;;;;;;;;;;;;;;;;;4955769;28;20046;-84
2021/04/12 01:10:52;;;;;;;5.07;3.40;;;;;;;;;;4955540;28;19922;-84
2021/04/12 01:13:43;;;;;;;4.25;2.60;;;;;;;;;;4914256;28;20089;-85
2021/04/12 01:16:29;;;;;;;7.22;2.78;;;;;;;;;;4954545;28;20531;-84
2021/04/12 01:19:34;;;;;;;3.67;2.13;;;;;;;;;;4971826;28;20499;-86
2021/04/12 01:22:19;;;;;;;4.50;2.08;;;;;;;;;;4960164;28;20138;-85
2021/04/12 01:28:02;;;;;;;3.38;1.58;;;;;;;;;;4965958;28;20050;-83
2021/04/12 01:30:47;;;;;;;6.15;2.08;;;;;;;;;;4955201;28;20090;-83
2021/04/12 01:33:20;;;;;;;3.80;1.75;;;;;;;;;;4955665;28;20145;-82
2021/04/12 01:36:21;;;;;;;7.68;1.67;;;;;;;;;;4955206;28;20121;-82
2021/04/12 01:39:03;;;;;;;4.57;1.70;;;;;;;;;;4955348;28;20480;-83
2021/04/12 01:41:40;;;;;;;4.25;1.95;;;;;;;;;;4955603;28;20074;-82
2021/04/12 01:44:19;;;;;;;5.53;1.98;;;;;;;;;;4955071;28;20571;-82
2021/04/12 01:47:06;;;;;;;5.68;2.22;;;;;;;;;;4938660;29;20063;-83
2021/04/12 01:49:42;;;;;;;6.97;2.15;;;;;;;;;;4934014;28;20378;-83
2021/04/12 01:52:19;;;;;;;3.88;2.00;;;;;;;;;;4957575;28;20055;-83
2021/04/12 01:54:58;;;;;;;3.67;1.80;;;;;;;;;;4958205;28;20082;-83
2021/04/12 01:57:40;;;;;;;4.03;2.03;;;;;;;;;;4948817;28;20051;-84
2021/04/12 02:00:06;;;;;;;8.52;2.47;;;;;;;;;;4951267;28;20078;-83
2021/04/12 02:02:38;;;;;;;11.38;2.55;;;;;;;;;;4958409;28;20059;-83
2021/04/12 02:05:13;;;;;;;4.00;2.33;;;;;;;;;;4958306;28;20054;-83
2021/04/12 02:07:40;;;;;;;;;;;;;;;;;;4958681;28;20086;-83
2021/04/12 02:10:12;;;;;;;6.13;2.58;;;;;;;;;;4958537;28;19976;-83
2021/04/12 02:12:55;;;;;;;5.85;2.20;;;;;;;;;;4958598;28;20117;-83
2021/04/12 02:15:42;;;;;;;6.97;2.40;;;;;;;;;;4958233;28;20086;-83
2021/04/12 02:18:24;;;;;;;8.68;3.00;;;;;;;;;;4958129;28;20130;-83
2021/04/12 02:20:51;;;;;;;4.38;2.33;;;;;;;;;;4958512;28;20127;-83
2021/04/12 02:23:36;;;;;;;9.13;2.70;;;;;;;;;;4957604;28;20054;-83
2021/04/12 02:26:09;;;;;;;8.90;3.05;;;;;;;;;;4957532;28;20110;-83
2021/04/12 02:28:54;;;;;;;7.63;3.33;;;;;;;;;;4958043;28;20057;-83
2021/04/12 02:31:33;;;;;;;7.97;3.10;;;;;;;;;;4957703;28;20109;-83
2021/04/12 02:34:06;;;;;;;6.75;2.83;;;;;;;;;;4957919;28;20557;-83
2021/04/12 02:36:38;;;;;;;6.30;3.10;;;;;;;;;;4957705;28;20135;-83
2021/04/12 02:39:16;;;;;;;8.98;3.05;;;;;;;;;;4957531;28;20609;-83
2021/04/12 02:41:52;;;;;;;11.48;3.08;;;;;;;;;;4958193;28;20113;-83
2021/04/12 02:44:19;;;;;;;5.45;2.67;;;;;;;;;;4955633;29;20133;-83
2021/04/12 02:46:53;;;;;;;5.43;2.20;;;;;;;;;;4938279;29;20059;-83
2021/04/12 02:49:25;;;;;;;6.53;2.70;;;;;;;;;;4938710;29;20051;-83
2021/04/12 02:51:59;;;;;;;3.78;2.90;;;;;;;;;;4970396;28;20070;-83
2021/04/12 02:54:45;;;;;;;7.60;2.78;;;;;;;;;;4974640;28;20139;-82
2021/04/12 02:57:17;;;;;;;4.25;2.78;;;;;;;;;;4956898;28;20142;-81
2021/04/12 03:00:13;;;;;;;11.48;2.50;;;;;;;;;;4957256;28;20744;-83
2021/04/12 03:02:47;;;;;;;5.53;2.63;;;;;;;;;;4882522;29;20076;-83
2021/04/12 03:05:29;;;;;;;9.45;2.88;;;;;;;;;;4966917;28;20087;-83
2021/04/12 03:08:03;;;;;;;4.78;2.58;;;;;;;;;;4972762;28;20134;-83
2021/04/12 03:13:30;;;;;;;4.78;2.35;;;;;;;;;;4974707;28;20054;-82
2021/04/12 03:16:10;;;;;;;5.47;2.10;;;;;;;;;;4956950;28;20543;-83
2021/04/12 03:18:37;;;;;;;6.90;3.10;;;;;;;;;;4957005;28;20138;-83
2021/04/12 03:21:06;;;;;;;7.53;2.35;;;;;;;;;;4961394;28;20089;-83
2021/04/12 03:23:42;;;;;;;5.88;2.47;;;;;;;;;;4956544;28;20050;-83
2021/04/12 03:26:29;;;;;;;4.30;2.15;;;;;;;;;;4956724;28;20134;-83
2021/04/12 03:29:02;;;;;;;6.35;1.95;;;;;;;;;;4937899;29;20424;-81
2021/04/12 03:31:32;;;;;;;9.25;1.92;;;;;;;;;;4937335;29;20843;-82
2021/04/12 03:34:18;;;;;;;4.00;1.77;;;;;;;;;;4955536;28;20199;-82
2021/04/12 03:36:51;;;;;;;3.85;2.05;;;;;;;;;;4956448;28;20483;-82
2021/04/12 03:39:28;;;;;;;8.73;1.92;;;;;;;;;;4957029;28;20070;-82
2021/04/12 03:41:57;;;;;;;12.98;2.22;;;;;;;;;;4956392;28;20085;-82
2021/04/12 03:44:40;;;;;;;6.85;2.05;;;;;;;;;;4955408;28;20047;-82
2021/04/12 03:47:25;;;;;;;6.47;2.60;;;;;;;;;;4954297;28;20433;-82
2021/04/12 03:50:03;;;;;;;5.60;2.60;;;;;;;;;;4956698;28;20501;-85
2021/04/12 03:52:35;;;;;;;8.68;3.35;;;;;;;;;;4953367;28;20055;-85
2021/04/12 03:55:14;;;;;;;7.53;2.92;;;;;;;;;;4954328;28;20078;-84
2021/04/12 03:57:51;;;;;;;5.18;2.90;;;;;;;;;;4948475;28;20508;-84
2021/04/12 04:00:34;;;;;;;5.35;2.58;;;;;;;;;;4956371;28;20113;-84
2021/04/12 04:03:19;;;;;;;6.38;2.50;;;;;;;;;;4954882;28;20059;-85
2021/04/12 04:06:10;;;;;;;8.23;2.72;;;;;;;;;;4943195;28;20051;-85
2021/04/12 04:08:39;;;;;;;7.70;2.70;;;;;;;;;;4936952;29;20386;-85
2021/04/12 04:11:16;;;;;;;12.45;3.00;;;;;;;;;;4936977;29;20062;-85
2021/04/12 04:14:01;;;;;;;6.32;2.65;;;;;;;;;;4953056;28;20114;-85
2021/04/12 04:16:28;;;;;;;;;;;;;;;;;;4956288;28;20078;-85
2021/04/12 04:18:57;;;;;;;;;;;;;;;;;;4955971;28;19929;-85
2021/04/12 04:21:24;;;;;;;;;;;;;;;;;;4951395;28;19925;-85
2021/04/12 04:23:51;;;;;;;;;;;;;;;;;;4964693;28;20351;-85
2021/04/12 04:26:19;;;;;;;;;;;;;;;;;;4965072;28;20017;-84
2021/04/12 04:28:47;;;;;;;;;;;;;;;;;;4968178;28;19965;-85
2021/04/12 04:31:14;;;;;;;;;;;;;;;;;;4967132;28;19953;-85
2021/04/12 04:33:40;;;;;;;;;;;;;;;;;;4968079;28;19962;-85
2021/04/12 04:36:07;;;;;;;;;;;;;;;;;;4975263;28;20503;-85
2021/04/12 04:41:05;;;;;;;;;;;;;;;;;;4973544;28;19985;-85
2021/04/12 04:43:32;;;;;;;;;;;;;;;;;;4957872;28;20012;-85
2021/04/12 04:45:59;;;;;;;;;;;;;;;;;;4963297;28;19980;-85
2021/04/12 04:48:26;;;;;;;;;;;;;;;;;;4959500;28;20121;-86
2021/04/12 04:51:00;;;;;;;;;;;;;;;;;;4967095;28;19922;-89
2021/04/12 04:53:35;;;;;;;;;;;;;;;;;;4960035;28;19973;-86
2021/04/12 04:56:07;;;;;;;;;;;;;;;;;;4955997;28;19922;-86
2021/04/12 04:58:34;;;;;;;;;;;;;;;;;;4938218;29;20082;-87
2021/04/12 05:01:00;;;;;;;;;;;;;;;;;;4936752;28;19923;-85
2021/04/12 05:03:27;;;;;;;;;;;;;;;;;;4955962;28;20013;-86
2021/04/12 05:05:54;;;;;;;;;;;;;;;;;;4946365;29;19930;-84
2021/04/12 05:08:20;;;;;;;;;;;;;;;;;;4963494;28;20005;-91
2021/04/12 05:10:47;;;;;;;;;;;;;;;;;;4955868;28;20021;-83
2021/04/12 05:13:14;;;;;;;;;;;;;;;;;;4956050;28;19970;-84
2021/04/12 05:15:54;;;;;;;;;;;;;;;;;;4948499;28;20252;-88
2021/04/12 05:18:21;;;;;;;;;;;;;;;;;;4938001;29;19972;-84
2021/04/12 05:20:47;;;;;;;;;;;;;;;;;;4937031;29;20261;-82
2021/04/12 05:23:14;;;;;;;;;;;;;;;;;;4936630;28;20001;-81
2021/04/12 05:25:40;;;;;;;;;;;;;;;;;;4940317;29;20009;-82
2021/04/12 05:28:07;;;;;;;;;;;;;;;;;;4940994;28;19977;-80
2021/04/12 05:30:34;;;;;;;;;;;;;;;;;;4977099;28;19983;-79
2021/04/12 05:33:00;;;;;;;;;;;;;;;;;;4975298;28;20676;-83
2021/04/12 05:35:27;;;;;;;;;;;;;;;;;;4962454;28;20820;-80
2021/04/12 05:37:53;;;;;;;;;;;;;;;;;;4964092;28;19965;-80
2021/04/12 05:40:20;;;;;;;;;;;;;;;;;;4958047;28;20438;-84
2021/04/12 05:42:46;;;;;;;;;;;;;;;;;;4960059;28;19989;-79
2021/04/12 05:45:13;;;;;;;;;;;;;;;;;;4959878;28;20008;-85
2021/04/12 05:47:40;;;;;;;;;;;;;;;;;;4962708;28;19969;-83
2021/04/12 05:50:11;;;;;;;;;;;;;;;;;;4960808;28;19922;-81
2021/04/12 05:52:37;;;;;;;;;;;;;;;;;;4957036;28;20015;-80
2021/04/12 05:55:04;;;;;;;;;;;;;;;;;;4971201;23;19968;-83
2021/04/12 05:57:31;;;;;;;;;;;;;;;;;;4976556;28;20016;-82
2021/04/12 05:59:57;;;;;;;;;;;;;;;;;;4994627;28;19928;-81
2021/04/12 06:02:24;;;;;;;;;;;;;;;;;;4994366;28;20020;-82
2021/04/12 06:04:52;;;;;;;;;;;;;;;;;;4976551;28;19921;-80
2021/04/12 06:07:27;;;;;;;;;;;;;;;;;;4975766;28;19933;-81
2021/04/12 06:09:54;;;;;;;;;;;;;;;;;;4974922;28;20017;-82
2021/04/12 06:15:25;;;;;;;;;;;;;;;;;;4954048;28;20482;-82
2021/04/12 06:17:52;;;;;;;;;;;;;;;;;;4954775;29;19927;-82
2021/04/12 06:20:19;;;;;;;;;;;;;;;;;;4956856;28;19922;-82
2021/04/12 06:22:45;;;;;;;;;;;;;;;;;;4974863;28;19926;-82
2021/04/12 06:25:12;;;;;;;;;;;;;;;;;;4941501;29;19942;-82
2021/04/12 06:27:40;;;;;;;;;;;;;;;;;;4953723;29;19926;-82
2021/04/12 06:30:06;;;;;;;;;;;;;;;;;;4954682;29;20009;-82
2021/04/12 06:32:33;;;;;;;;;;;;;;;;;;4963576;23;20012;-83
2021/04/12 06:34:59;;;;;;;;;;;;;;;;;;4950330;28;19927;-83
2021/04/12 06:37:26;;;;;;;;;;;;;;;;;;4955990;29;19973;-82
2021/04/12 06:39:52;;;;;;;;;;;;;;;;;;4955121;29;19958;-83
2021/04/12 06:42:19;;;;;;;;;;;;;;;;;;4957532;28;19965;-84
2021/04/12 06:44:46;;;;;;;;;;;;;;;;;;4955183;28;20018;-82
2021/04/12 06:47:12;;;;;;;;;;;;;;;;;;4955010;28;20018;-83
2021/04/12 06:49:39;;;;;;;;;;;;;;;;;;4955868;28;19922;-83
2021/04/12 06:52:05;;;;;;;;;;;;;;;;;;4971775;28;19926;-84
2021/04/12 06:54:32;;;;;;;;;;;;;;;;;;4957787;28;20362;-83
2021/04/12 06:56:59;;;;;;;;;;;;;;;;;;4957872;28;19968;-84
2021/04/12 06:59:25;;;;;;;;;;;;;;;;;;4958032;28;19968;-83
2021/04/12 07:01:52;;;;;;;;;;;;;;;;;;4957564;28;19977;-84
2021/04/12 07:04:18;;;;;;;;;;;;;;;;;;4975464;28;19926;-83
2021/04/12 07:06:47;;;;;;;;;;;;;;;;;;4975056;28;20017;-83
2021/04/12 07:09:14;;;;;;;;;;;;;;;;;;4957338;28;20575;-83
2021/04/12 07:11:40;;;;;;;;;;;;;;;;;;4957450;28;19965;-83
2021/04/12 07:14:07;;;;;;;;;;;;;;;;;;4974941;28;20025;-83
2021/04/12 07:16:33;;;;;;;;;;;;;;;;;;4957364;28;19926;-82
2021/04/12 07:19:00;;;;;;;;;;;;;;;;;;4957878;28;19922;-83
2021/04/12 07:21:27;;;;;;;;;;;;;;;;;;4956978;28;19922;-83
2021/04/12 07:23:54;;;;;;;;;;;;;;;;;;4957118;28;20441;-83
2021/04/12 07:26:21;;;;;;;;;;;;;;;;;;4956395;28;20394;-83
2021/04/12 07:28:47;;;;;;;;;;;;;;;;;;4974750;28;19922;-82
2021/04/12 07:31:16;;;;;;;;;;;;;;;;;;4957104;28;19965;-83
2021/04/12 07:33:43;;;;;;;;;;;;;;;;;;4957604;28;19922;-83
2021/04/12 07:36:09;;;;;;;;;;;;;;;;;;4954271;28;19921;-83
2021/04/12 07:38:36;;;;;;;;;;;;;;;;;;4974440;28;19977;-82
2021/04/12 07:41:03;;;;;;;;;;;;;;;;;;4957131;28;19965;-83
2021/04/12 07:43:30;;;;;;;;;;;;;;;;;;4956959;28;20309;-82
2021/04/12 07:46:00;;;;;;;;;;;;;;;;;;4973464;28;19961;-83
2021/04/12 07:48:27;;;;;;;;;;;;;;;;;;4953574;28;19962;-83
2021/04/12 07:50:58;;;;;;;;;;;;;;;;;;4970108;28;20454;-83
2021/04/12 07:53:25;;;;;;;;;;;;;;;;;;4974602;28;19930;-83
2021/04/12 07:55:52;;;;;;;;;;;;;;;;;;4956573;28;20282;-83
2021/04/12 07:58:18;;;;;;;;;;;;;;;;;;4956919;28;19932;-83
2021/04/12 08:00:46;;;;;;;;;;;;;;;;;;4956614;28;20375;-82
2021/04/12 08:03:13;;;;;;;;;;;;;;;;;;4957381;28;20010;-83
2021/04/12 08:05:39;;;;;;;;;;;;;;;;;;4956261;28;20685;-82
2021/04/12 08:08:15;;;;;;;;;;;;;;;;;;4973919;28;20049;-83
2021/04/12 08:10:42;;;;;;;;;;;;;;;;;;4956744;28;20004;-83
2021/04/12 08:13:08;;;;;;;;;;;;;;;;;;4957029;28;20012;-82
2021/04/12 08:15:35;;;;;;;;;;;;;;;;;;4957049;28;20012;-83
2021/04/12 08:18:06;;;;;;;;;;;;;;;;;;4956354;28;19969;-83
2021/04/12 08:20:34;;;;;;;;;;;;;;;;;;4974348;28;20017;-82
2021/04/12 08:23:01;;;;;;;;;;;;;;;;;;4956988;28;19970;-82
2021/04/12 08:25:27;;;;;;;;;;;;;;;;;;4974447;28;20401;-82
2021/04/12 08:27:54;;;;;;;;;;;;;;;;;;4973605;28;19922;-83
2021/04/12 08:30:20;;;;;;;;;;;;;;;;;;4956928;28;20008;-82
2021/04/12 08:32:47;;;;;;;;;;;;;;;;;;4967484;28;20376;-83
2021/04/12 08:35:14;;;;;;;;;;;;;;;;;;4956080;28;20028;-83
2021/04/12 08:37:40;;;;;;;;;;;;;;;;;;4956203;28;19926;-82
2021/04/12 08:40:07;;;;;;;;;;;;;;;;;;4972126;28;19964;-82
2021/04/12 08:42:34;;;;;;;;;;;;;;;;;;4956289;28;19973;-83
2021/04/12 08:45:00;;;;;;;;;;;;;;;;;;4956117;28;20547;-83
2021/04/12 08:47:27;;;;;;;;;;;;;;;;;;4955775;28;19922;-82
2021/04/12 08:49:55;;;;;;;;;;;;;;;;;;4972946;28;19945;-81
2021/04/12 08:52:22;;;;;;;;;;;;;;;;;;4956595;28;20029;-82
2021/04/12 08:54:48;;;;;;;;;;;;;;;;;;4956562;28;19921;-82
2021/04/12 08:57:15;;;;;;;;;;;;;;;;;;4956023;28;19932;-82
2021/04/12 08:59:42;;;;;;;;;;;;;;;;;;4958307;28;20320;-83
2021/04/12 09:02:08;;;;;;;;;;;;;;;;;;4956922;28;19922;-83
2021/04/12 09:04:36;;;;;;;;;;;;;;;;;;4975805;28;19922;-84
2021/04/12 09:07:02;;;;;;;;;;;;;;;;;;4960785;28;20005;-83
2021/04/12 09:09:29;;;;;;;;;;;;;;;;;;4951900;29;20025;-85
2021/04/12 09:11:55;;;;;;;;;;;;;;;;;;4957383;29;19973;-84
2021/04/12 09:14:22;;;;;;;;;;;;;;;;;;4958432;29;20434;-85
2021/04/12 09:16:49;;;;;;;;;;;;;;;;;;4956740;29;20012;-85
2021/04/12 09:19:15;;;;;;;;;;;;;;;;;;4956886;29;19969;-85
2021/04/12 09:21:44;;;;;;;;;;;;;;;;;;4971345;28;19922;-85
2021/04/12 09:24:11;;;;;;;;;;;;;;;;;;4960027;28;20491;-85
2021/04/12 09:26:37;;;;;;;;;;;;;;;;;;4959751;28;19926;-85
2021/04/12 09:29:04;;;;;;;;;;;;;;;;;;4959794;28;19922;-85
2021/04/12 09:31:31;;;;;;;;;;;;;;;;;;4959675;28;19929;-84
2021/04/12 09:33:57;;;;;;;;;;;;;;;;;;4958893;28;19922;-85
2021/04/12 09:36:36;;;;;;;;;;;;;;;;;;4976696;28;20004;-85
2021/04/12 09:39:03;;;;;;;;;;;;;;;;;;4977006;28;19928;-85
2021/04/12 09:41:30;;;;;;;;;;;;;;;;;;4959736;28;19964;-85
2021/04/12 09:43:56;;;;;;;;;;;;;;;;;;4958691;28;19990;-86
2021/04/12 09:46:23;;;;;;;;;;;;;;;;;;4959226;28;20347;-86
2021/04/12 09:48:49;;;;;;;;;;;;;;;;;;4976414;28;19926;-85
2021/04/12 09:51:16;;;;;;;;;;;;;;;;;;4959426;28;20600;-85
2021/04/12 09:53:42;;;;;;;;;;;;;;;;;;4959575;28;19961;-85
2021/04/12 09:56:09;;;;;;;;;;;;;;;;;;4976356;28;20020;-85
2021/04/12 09:58:37;;;;;;;;;;;;;;;;;;4959728;28;19957;-85
2021/04/12 10:01:03;;;;;;;;;;;;;;;;;;4941350;29;19973;-86
2021/04/12 10:03:30;;;;;;;;;;;;;;;;;;4955792;29;20694;-85
2021/04/12 10:05:56;;;;;;;;;;;;;;;;;;4956836;29;19972;-86
2021/04/12 10:08:23;;;;;;;;;;;;;;;;;;4955624;29;20450;-87
2021/04/12 10:10:52;;;;;;;;;;;;;;;;;;4974121;28;20020;-86
2021/04/12 10:13:18;;;;;;;;;;;;;;;;;;4959426;28;19984;-86
2021/04/12 10:15:45;;;;;;;;;;;;;;;;;;4958361;28;19922;-84
2021/04/12 10:18:11;;;;;;;;;;;;;;;;;;4957532;28;20024;-84
2021/04/12 10:20:38;;;;;;;;;;;;;;;;;;4976593;28;20062;-84
2021/04/12 10:23:04;;;;;;;;;;;;;;;;;;4976135;28;20009;-84
2021/04/12 10:25:31;;;;;;;;;;;;;;;;;;4960039;28;20009;-80
2021/04/12 10:27:58;;;;;;;;;;;;;;;;;;4975514;28;19929;-80
2021/04/12 10:30:24;;;;;;;;;;;;;;;;;;4958772;28;19922;-80
2021/04/12 10:32:51;;;;;;;;;;;;;;;;;;4958614;28;20055;-80
2021/04/12 10:35:18;;;;;;;;;;;;;;;;;;4975754;28;19922;-85
2021/04/12 10:37:44;;;;;;;;;;;;;;;;;;4956953;28;20467;-85
2021/04/12 10:40:11;;;;;;;;;;;;;;;;;;4956852;28;19933;-85
2021/04/12 10:42:38;;;;;;;;;;;;;;;;;;4956840;28;19945;-85
2021/04/12 10:45:06;;;;;;;;;;;;;;;;;;4958048;28;20434;-85
2021/04/12 10:47:33;;;;;;;;;;;;;;;;;;4975737;28;20020;-85
2021/04/12 10:50:00;;;;;;;;;;;;;;;;;;4957791;28;19922;-86
2021/04/12 10:52:28;;;;;;;;;;;;;;;;;;4957988;28;20319;-85
2021/04/12 10:54:55;;;;;;;;;;;;;;;;;;4975645;28;20016;-86
2021/04/12 10:57:23;;;;;;;;;;;;;;;;;;4958151;28;19972;-82
2021/04/12 10:59:50;;;;;;;;;;;;;;;;;;4975319;28;20371;-81
2021/04/12 11:02:17;;;;;;;;;;;;;;;;;;4957388;28;19969;-81
2021/04/12 11:04:44;;;;;;;;;;;;;;;;;;4958272;28;19964;-81
2021/04/12 11:07:11;;;;;;;;;;;;;;;;;;4957846;28;19941;-83
2021/04/12 11:09:37;;;;;;;;;;;;;;;;;;4957793;28;19922;-83
2021/04/12 11:12:04;;;;;;;;;;;;;;;;;;4957502;28;20021;-81
2021/04/12 11:14:30;;;;;;;;;;;;;;;;;;4957746;28;19921;-82
2021/04/12 11:16:57;;;;;;;;;;;;;;;;;;4957529;28;19933;-81
2021/04/12 11:19:24;;;;;;;;;;;;;;;;;;4958153;28;19922;-81
2021/04/12 11:21:50;;;;;;;;;;;;;;;;;;4957966;28;19969;-81
2021/04/12 11:24:17;;;;;;;;;;;;;;;;;;4957036;28;20387;-81
2021/04/12 11:26:44;;;;;;;;;;;;;;;;;;4957605;28;20033;-81
2021/04/12 11:29:10;;;;;;;;;;;;;;;;;;4957747;28;19928;-81
2021/04/12 11:31:37;;;;;;;;;;;;;;;;;;4957255;28;20009;-80
2021/04/12 11:34:04;;;;;;;;;;;;;;;;;;4957374;28;19922;-81
2021/04/12 11:36:30;;;;;;;;;;;;;;;;;;4957090;28;19922;-81
2021/04/12 11:38:57;;;;;;;;;;;;;;;;;;4957181;28;19929;-81
2021/04/12 11:41:24;;;;;;;;;;;;;;;;;;4952574;29;20039;-79
2021/04/12 11:43:51;;;;;;;;;;;;;;;;;;4954756;29;20004;-80
2021/04/12 11:46:17;;;;;;;;;;;;;;;;;;4954944;29;19929;-80
2021/04/12 11:48:44;;;;;;;;;;;;;;;;;;4953879;29;20018;-79
2021/04/12 11:51:10;;;;;;;;;;;;;;;;;;4953681;29;19922;-79
2021/04/12 11:53:37;;;;;;;;;;;;;;;;;;4953671;29;19929;-80
2021/04/12 11:56:04;;;;;;;;;;;;;;;;;;4954657;29;19922;-79
2021/04/12 11:58:30;;;;;;;;;;;;;;;;;;4953085;29;20012;-80
2021/04/12 12:00:57;;;;;;;;;;;;;;;;;;4953668;28;20277;-79
2021/04/12 12:03:24;;;;;;;;;;;;;;;;;;4956258;28;19944;-80
2021/04/12 12:05:51;;;;;;;;;;;;;;;;;;4956277;28;19957;-80
2021/04/12 12:08:18;;;;;;;;;;;;;;;;;;4955941;28;19928;-80
2021/04/12 12:10:45;;;;;;;;;;;;;;;;;;4973915;28;20013;-80
2021/04/12 12:13:11;;;;;;;;;;;;;;;;;;4967792;28;20029;-80
2021/04/12 12:15:38;;;;;;;;;;;;;;;;;;4953102;29;19926;-81
2021/04/12 12:18:05;;;;;;;;;;;;;;;;;;4952961;29;19957;-80
2021/04/12 12:20:33;;;;;;;;;;;;;;;;;;4954254;29;20280;-80
2021/04/12 12:22:59;;;;;;;;;;;;;;;;;;4969628;28;19978;-80
2021/04/12 12:25:26;;;;;;;;;;;;;;;;;;4956481;28;19922;-79
2021/04/12 12:27:53;;;;;;;;;;;;;;;;;;4955518;28;19972;-81
2021/04/12 12:30:19;;;;;;;;;;;;;;;;;;4972846;28;20001;-80
2021/04/12 12:32:46;;;;;;;;;;;;;;;;;;4972749;28;19926;-82
2021/04/12 12:35:13;;;;;;;;;;;;;;;;;;4955992;28;19925;-81
2021/04/12 12:37:39;;;;;;;;;;;;;;;;;;4956625;28;19930;-81
2021/04/12 12:40:06;;;;;;;;;;;;;;;;;;4956614;28;19921;-81
2021/04/12 12:42:33;;;;;;;;;;;;;;;;;;4944246;29;19926;-79
2021/04/12 12:44:59;;;;;;;;;;;;;;;;;;4952270;29;20014;-80
2021/04/12 12:47:26;;;;;;;;;;;;;;;;;;4952374;29;19930;-80
2021/04/12 12:49:53;;;;;;;;;;;;;;;;;;4952287;29;20068;-80
2021/04/12 12:52:20;;;;;;;;;;;;;;;;;;4984579;28;19926;-80
2021/04/12 12:54:46;;;;;;;;;;;;;;;;;;4955022;28;20013;-81
2021/04/12 12:57:13;;;;;;;;;;;;;;;;;;4972199;28;19933;-86
2021/04/12 12:59:39;;;;;;;;;;;;;;;;;;4954962;28;19949;-86
2021/04/12 13:02:06;;;;;;;;;;;;;;;;;;4955968;28;20016;-86
2021/04/12 13:04:33;;;;;;;;;;;;;;;;;;4956239;28;19929;-86
2021/04/12 13:07:00;;;;;;;;;;;;;;;;;;4973334;28;19929;-84
2021/04/12 13:09:26;;;;;;;;;;;;;;;;;;4955931;28;19932;-80
2021/04/12 13:11:53;;;;;;;;;;;;;;;;;;4972283;28;19984;-79
2021/04/12 13:14:20;;;;;;;;;;;;;;;;;;4954190;28;19981;-78
2021/04/12 13:16:47;;;;;;;;;;;;;;;;;;4969569;28;19926;-80
2021/04/12 13:19:13;;;;;;;;;;;;;;;;;;4953822;28;19930;-79
2021/04/12 13:21:40;;;;;;;;;;;;;;;;;;4972102;28;19926;-79
2021/04/12 13:24:07;;;;;;;;;;;;;;;;;;4953477;28;19929;-80
2021/04/12 13:26:33;;;;;;;;;;;;;;;;;;4953929;28;20622;-79
2021/04/12 13:29:01;;;;;;;;;;;;;;;;;;4954733;28;19933;-78
2021/04/12 13:31:28;;;;;;;;;;;;;;;;;;4955927;28;19922;-79
2021/04/12 13:33:54;;;;;;;;;;;;;;;;;;4972528;28;19922;-79
2021/04/12 13:36:21;;;;;;;;;;;;;;;;;;4955403;28;20008;-79
2021/04/12 13:38:49;;;;;;;;;;;;;;;;;;4942669;29;19922;-80
2021/04/12 13:41:20;;;;;;;;;;;;;;;;;;4953491;29;20025;-80
2021/04/12 13:43:46;;;;;;;;;;;;;;;;;;4953314;29;19927;-80
2021/04/12 13:46:13;;;;;;;;;;;;;;;;;;4954128;28;20435;-79
2021/04/12 13:48:39;;;;;;;;;;;;;;;;;;4966163;28;20552;-80
2021/04/12 13:51:07;;;;;;;;;;;;;;;;;;4964341;28;19965;-79
2021/04/12 13:53:34;;;;;;;;;;;;;;;;;;4959497;28;19973;-79
2021/04/12 13:56:00;;;;;;;;;;;;;;;;;;4958810;28;19922;-80
2021/04/12 13:58:27;;;;;;;;;;;;;;;;;;4976133;28;19922;-80
2021/04/12 14:01:01;;;;;;;;;;;;;;;;;;4977197;28;19926;-80
2021/04/12 14:03:43;;;;;;;;;;;;;;;;;;4976801;28;19949;-80
2021/04/12 14:06:10;;;;;;;;;;;;;;;;;;4958911;28;19979;-81
2021/04/12 14:08:37;;;;;;;;;;;;;;;;;;4959083;28;20025;-81
2021/04/12 14:11:03;;;;;;;;;;;;;;;;;;4958555;28;20024;-81
2021/04/12 14:13:30;;;;;;;;;;;;;;;;;;4977147;28;20016;-85
2021/04/12 14:15:57;;;;;;;;;;;;;;;;;;4976373;28;19922;-85
2021/04/12 14:18:24;;;;;;;;;;;;;;;;;;4976337;28;19977;-83
2021/04/12 14:20:51;;;;;;;;;;;;;;;;;;4959535;28;19960;-78
2021/04/12 14:23:17;;;;;;;;;;;;;;;;;;4958788;28;19984;-78
2021/04/12 14:25:44;;;;;;;;;;;;;;;;;;4975752;28;20016;-80
2021/04/12 14:28:11;;;;;;;;;;;;;;;;;;4958552;28;20426;-79
2021/04/12 14:30:37;;;;;;;;;;;;;;;;;;4976016;28;20017;-80
2021/04/12 14:33:04;;;;;;;;;;;;;;;;;;4976239;28;19990;-80
2021/04/12 14:35:31;;;;;;;;;;;;;;;;;;4964401;28;20013;-80
2021/04/12 14:37:57;;;;;;;;;;;;;;;;;;4970834;28;20017;-80
2021/04/12 14:43:03;;;;;;;;;;;;;;;;;;4956128;29;20029;-80
2021/04/12 14:45:30;;;;;;;;;;;;;;;;;;4957513;29;19987;-81
2021/04/12 14:50:57;;;;;;;;;;;;;;;;;;4979542;28;19922;-83
2021/04/12 14:53:23;;;;;;;;;;;;;;;;;;5003139;28;19956;-78
2021/04/12 14:55:50;;;;;;;;;;;;;;;;;;4991030;28;19936;-83
2021/04/12 14:58:16;;;;;;;;;;;;;;;;;;4990458;28;20017;-83
2021/04/12 15:00:43;;;;;;;;;;;;;;;;;;4975168;28;19922;-84
2021/04/12 15:03:10;;;;;;;;;;;;;;;;;;4974388;28;19965;-83
2021/04/12 15:05:36;;;;;;;;;;;;;;;;;;4991289;28;19926;-80
2021/04/12 15:08:03;;;;;;;;;;;;;;;;;;5009682;28;20293;-86
2021/04/12 15:10:29;;;;;;;;;;;;;;;;;;4994438;28;19948;-86
2021/04/12 15:12:56;;;;;;;;;;;;;;;;;;5009381;28;20016;-85
2021/04/12 15:15:23;;;;;;;;;;;;;;;;;;4996733;28;19961;-85
2021/04/12 15:17:51;;;;;;;;;;;;;;;;;;4994578;28;19987;-85
2021/04/12 15:20:17;;;;;;;;;;;;;;;;;;4994804;28;20438;-85
2021/04/12 15:22:44;;;;;;;;;;;;;;;;;;5009809;28;20359;-85
2021/04/12 15:25:10;;;;;;;;;;;;;;;;;;5010150;28;19968;-84
2021/04/12 15:27:52;;;;;;;;;;;;;;;;;;5007832;28;20375;-85
2021/04/12 15:30:19;;;;;;;;;;;;;;;;;;4994525;28;20016;-85
2021/04/12 15:32:45;;;;;;;;;;;;;;;;;;5010079;28;19968;-85
2021/04/12 15:35:12;;;;;;;;;;;;;;;;;;5010030;28;19929;-85
2021/04/12 15:37:39;;;;;;;;;;;;;;;;;;5009474;28;19976;-85
2021/04/12 15:40:05;;;;;;;;;;;;;;;;;;4994687;28;19961;-85
2021/04/12 15:42:32;;;;;;;;;;;;;;;;;;5010039;28;19972;-85
2021/04/12 15:44:59;;;;;;;;;;;;;;;;;;5008817;28;19953;-84
2021/04/12 15:47:25;;;;;;;;;;;;;;;;;;5009281;28;20011;-79
2021/04/12 15:49:53;;;;;;;;;;;;;;;;;;4994107;28;20010;-80
2021/04/12 15:52:20;;;;;;;;;;;;;;;;;;5003878;28;20310;-80
2021/04/12 15:54:46;;;;;;;;;;;;;;;;;;5008877;28;19957;-80
2021/04/12 15:57:14;;;;;;;;;;;;;;;;;;5008690;28;20355;-80
2021/04/12 15:59:40;;;;;;;;;;;;;;;;;;5009189;28;20358;-80
2021/04/12 16:02:07;;;;;;;;;;;;;;;;;;4993713;28;20013;-80
2021/04/12 16:04:33;;;;;;;;;;;;;;;;;;4990421;28;19945;-80
2021/04/12 16:07:00;;;;;;;;;;;;;;;;;;4988927;28;19922;-80
2021/04/12 16:09:29;;;;;;;;;;;;;;;;;;4973634;28;19953;-80
2021/04/12 16:11:56;;;;;;;;;;;;;;;;;;4974594;28;19929;-80
2021/04/12 16:14:23;;;;;;;;;;;;;;;;;;4974434;28;19988;-80
2021/04/12 16:16:49;;;;;;;;;;;;;;;;;;4989066;28;19926;-80
2021/04/12 16:19:16;;;;;;;;;;;;;;;;;;4975183;28;19922;-80
2021/04/12 16:21:43;;;;;;;;;;;;;;;;;;4993373;28;19968;-80
2021/04/12 16:24:09;;;;;;;;;;;;;;;;;;4992937;28;20059;-82
2021/04/12 16:26:37;;;;;;;;;;;;;;;;;;4993035;28;19976;-80
2021/04/12 16:29:04;;;;;;;;;;;;;;;;;;5008188;28;19921;-80
2021/04/12 16:31:32;;;;;;;;;;;;;;;;;;4993122;28;20434;-80
2021/04/12 16:34:00;;;;;;;;;;;;;;;;;;5008235;28;20378;-79
2021/04/12 16:36:26;;;;;;;;;;;;;;;;;;5007748;28;19960;-79
2021/04/12 16:38:53;;;;;;;;;;;;;;;;;;5008312;28;20016;-79
2021/04/12 16:41:19;;;;;;;;;;;;;;;;;;5008565;28;19999;-79
2021/04/12 16:43:47;;;;;;;;;;;;;;;;;;4991074;28;19965;-79
2021/04/12 16:46:14;;;;;;;;;;;;;;;;;;4991414;28;19962;-80